Orange, California
Current Conditions -  °F | °C
As of 12:53 AM on Sunday 26 Oct 2014 (Local Time) from KSNA Reporting Station
Clear Clear  
Wind Chill: 68°   Ceiling: Unl
Heat Index: 68°   Visibility: 10mi
Dew Point: 59°   Wind: 3mph
Humidity: 73%   Direction: 130°SE
Pressure: 30"   Gusts: NA
Location:  33.79°N, 117.85°W
Report Text: KSNA 260753Z AUTO 13003KT 10SM CLR 20/15 A3000 RMK AO2 SLP159 T02000150 402720183 TSNO
Loading
Personal Weather Stations






























Interactive Weather Map
Tropical Storm Tracking
New forecast layout! Learn more

10-Day Weather Forecast

Advertisements
Track Severe Weather on mobile